sensor_id;sensor_type;location;lat;lon;timestamp;P1;durP1;ratioP1;P2;durP2;ratioP2
9729;SDS011;4904;49.152;11.004;2023-07-02T00:02:13;2.40;;;2.20;;
9729;SDS011;4904;49.152;11.004;2023-07-02T00:04:41;3.55;;;2.55;;
9729;SDS011;4904;49.152;11.004;2023-07-02T00:07:08;2.35;;;2.13;;
9729;SDS011;4904;49.152;11.004;2023-07-02T00:09:35;3.70;;;2.20;;
9729;SDS011;4904;49.152;11.004;2023-07-02T00:12:01;2.42;;;2.22;;
9729;SDS011;4904;49.152;11.004;2023-07-02T00:14:29;2.70;;;2.50;;
9729;SDS011;4904;49.152;11.004;2023-07-02T00:16:57;3.28;;;2.00;;
9729;SDS011;4904;49.152;11.004;2023-07-02T00:19:24;2.92;;;2.15;;
9729;SDS011;4904;49.152;11.004;2023-07-02T00:21:51;2.55;;;2.35;;
9729;SDS011;4904;49.152;11.004;2023-07-02T00:24:18;2.40;;;2.20;;
9729;SDS011;4904;49.152;11.004;2023-07-02T00:26:45;2.60;;;2.40;;
9729;SDS011;4904;49.152;11.004;2023-07-02T00:29:12;2.70;;;2.50;;
9729;SDS011;4904;49.152;11.004;2023-07-02T00:31:39;2.15;;;2.03;;
9729;SDS011;4904;49.152;11.004;2023-07-02T00:34:07;2.72;;;2.45;;
9729;SDS011;4904;49.152;11.004;2023-07-02T00:36:34;3.25;;;2.50;;
9729;SDS011;4904;49.152;11.004;2023-07-02T00:39:01;3.78;;;2.42;;
9729;SDS011;4904;49.152;11.004;2023-07-02T00:41:28;2.80;;;2.60;;
9729;SDS011;4904;49.152;11.004;2023-07-02T00:43:55;2.75;;;2.55;;
9729;SDS011;4904;49.152;11.004;2023-07-02T00:46:23;2.80;;;2.22;;
9729;SDS011;4904;49.152;11.004;2023-07-02T00:48:51;2.67;;;2.45;;
9729;SDS011;4904;49.152;11.004;2023-07-02T00:51:22;4.10;;;2.45;;
9729;SDS011;4904;49.152;11.004;2023-07-02T00:53:51;2.60;;;2.40;;
9729;SDS011;4904;49.152;11.004;2023-07-02T00:56:19;3.33;;;2.88;;
9729;SDS011;4904;49.152;11.004;2023-07-02T00:58:47;3.03;;;2.83;;
9729;SDS011;4904;49.152;11.004;2023-07-02T01:01:16;2.80;;;2.60;;
9729;SDS011;4904;49.152;11.004;2023-07-02T01:03:49;2.83;;;2.63;;
9729;SDS011;4904;49.152;11.004;2023-07-02T01:06:19;3.03;;;2.83;;
9729;SDS011;4904;49.152;11.004;2023-07-02T01:08:51;2.65;;;2.45;;
9729;SDS011;4904;49.152;11.004;2023-07-02T01:11:20;3.45;;;2.70;;
9729;SDS011;4904;49.152;11.004;2023-07-02T01:13:49;4.15;;;2.70;;
9729;SDS011;4904;49.152;11.004;2023-07-02T01:16:18;3.13;;;2.83;;
9729;SDS011;4904;49.152;11.004;2023-07-02T01:18:47;4.07;;;2.70;;
9729;SDS011;4904;49.152;11.004;2023-07-02T01:21:17;5.80;;;2.75;;
9729;SDS011;4904;49.152;11.004;2023-07-02T01:23:45;3.10;;;2.80;;
9729;SDS011;4904;49.152;11.004;2023-07-02T01:26:12;2.83;;;2.63;;
9729;SDS011;4904;49.152;11.004;2023-07-02T01:28:41;3.60;;;2.80;;
9729;SDS011;4904;49.152;11.004;2023-07-02T01:31:08;3.03;;;2.75;;
9729;SDS011;4904;49.152;11.004;2023-07-02T01:33:35;2.90;;;2.42;;
9729;SDS011;4904;49.152;11.004;2023-07-02T01:36:02;3.00;;;2.80;;
9729;SDS011;4904;49.152;11.004;2023-07-02T01:38:30;3.80;;;3.50;;
9729;SDS011;4904;49.152;11.004;2023-07-02T01:40:57;3.70;;;3.40;;
9729;SDS011;4904;49.152;11.004;2023-07-02T01:43:24;3.58;;;3.28;;
9729;SDS011;4904;49.152;11.004;2023-07-02T01:45:50;3.47;;;3.17;;
9729;SDS011;4904;49.152;11.004;2023-07-02T01:48:20;3.80;;;3.17;;
9729;SDS011;4904;49.152;11.004;2023-07-02T01:50:47;3.53;;;3.22;;
9729;SDS011;4904;49.152;11.004;2023-07-02T01:53:14;3.65;;;3.35;;
9729;SDS011;4904;49.152;11.004;2023-07-02T01:55:42;5.25;;;3.22;;
9729;SDS011;4904;49.152;11.004;2023-07-02T01:58:11;3.65;;;3.35;;
9729;SDS011;4904;49.152;11.004;2023-07-02T02:00:37;4.00;;;3.60;;
9729;SDS011;4904;49.152;11.004;2023-07-02T02:03:04;4.97;;;3.60;;
9729;SDS011;4904;49.152;11.004;2023-07-02T02:05:31;3.85;;;3.53;;
9729;SDS011;4904;49.152;11.004;2023-07-02T02:07:58;5.28;;;3.80;;
9729;SDS011;4904;49.152;11.004;2023-07-02T02:10:25;4.30;;;3.53;;
9729;SDS011;4904;49.152;11.004;2023-07-02T02:12:53;3.30;;;3.10;;
9729;SDS011;4904;49.152;11.004;2023-07-02T02:15:20;4.30;;;2.90;;
9729;SDS011;4904;49.152;11.004;2023-07-02T02:17:47;3.25;;;2.92;;
9729;SDS011;4904;49.152;11.004;2023-07-02T02:20:13;6.20;;;3.22;;
9729;SDS011;4904;49.152;11.004;2023-07-02T02:22:40;4.88;;;3.13;;
9729;SDS011;4904;49.152;11.004;2023-07-02T02:25:09;3.83;;;2.95;;
9729;SDS011;4904;49.152;11.004;2023-07-02T02:27:35;3.20;;;2.88;;
9729;SDS011;4904;49.152;11.004;2023-07-02T02:30:04;4.85;;;2.90;;
9729;SDS011;4904;49.152;11.004;2023-07-02T02:32:32;3.15;;;2.75;;
9729;SDS011;4904;49.152;11.004;2023-07-02T02:34:59;3.33;;;3.10;;
9729;SDS011;4904;49.152;11.004;2023-07-02T02:37:26;3.05;;;2.83;;
9729;SDS011;4904;49.152;11.004;2023-07-02T02:39:55;4.20;;;2.90;;
9729;SDS011;4904;49.152;11.004;2023-07-02T02:42:22;3.33;;;3.03;;
9729;SDS011;4904;49.152;11.004;2023-07-02T02:44:49;3.97;;;2.90;;
9729;SDS011;4904;49.152;11.004;2023-07-02T02:47:17;4.70;;;3.13;;
9729;SDS011;4904;49.152;11.004;2023-07-02T02:49:44;3.20;;;2.90;;
9729;SDS011;4904;49.152;11.004;2023-07-02T02:52:11;3.38;;;3.05;;
9729;SDS011;4904;49.152;11.004;2023-07-02T02:54:39;3.50;;;2.90;;
9729;SDS011;4904;49.152;11.004;2023-07-02T02:57:06;3.28;;;2.97;;
9729;SDS011;4904;49.152;11.004;2023-07-02T02:59:33;4.30;;;3.13;;
9729;SDS011;4904;49.152;11.004;2023-07-02T03:02:00;3.72;;;2.97;;
9729;SDS011;4904;49.152;11.004;2023-07-02T03:04:28;3.03;;;2.60;;
9729;SDS011;4904;49.152;11.004;2023-07-02T03:06:55;3.30;;;3.00;;
9729;SDS011;4904;49.152;11.004;2023-07-02T03:09:21;3.15;;;2.85;;
9729;SDS011;4904;49.152;11.004;2023-07-02T03:11:48;2.83;;;2.63;;
9729;SDS011;4904;49.152;11.004;2023-07-02T03:14:15;3.15;;;2.85;;
9729;SDS011;4904;49.152;11.004;2023-07-02T03:16:42;3.00;;;2.60;;
9729;SDS011;4904;49.152;11.004;2023-07-02T03:19:11;3.25;;;2.95;;
9729;SDS011;4904;49.152;11.004;2023-07-02T03:21:41;3.30;;;3.00;;
9729;SDS011;4904;49.152;11.004;2023-07-02T03:24:08;4.70;;;2.90;;
9729;SDS011;4904;49.152;11.004;2023-07-02T03:26:36;3.65;;;2.80;;
9729;SDS011;4904;49.152;11.004;2023-07-02T03:29:03;4.75;;;3.20;;
9729;SDS011;4904;49.152;11.004;2023-07-02T03:31:30;3.50;;;3.20;;
9729;SDS011;4904;49.152;11.004;2023-07-02T03:33:57;3.85;;;2.92;;
9729;SDS011;4904;49.152;11.004;2023-07-02T03:36:24;3.25;;;3.05;;
9729;SDS011;4904;49.152;11.004;2023-07-02T03:38:52;3.72;;;3.17;;
9729;SDS011;4904;49.152;11.004;2023-07-02T03:41:19;3.40;;;3.10;;
9729;SDS011;4904;49.152;11.004;2023-07-02T03:43:46;4.65;;;3.20;;
9729;SDS011;4904;49.152;11.004;2023-07-02T03:46:13;3.33;;;2.85;;
9729;SDS011;4904;49.152;11.004;2023-07-02T03:48:41;3.50;;;3.20;;
9729;SDS011;4904;49.152;11.004;2023-07-02T03:51:14;5.80;;;3.17;;
9729;SDS011;4904;49.152;11.004;2023-07-02T03:53:45;6.55;;;3.05;;
9729;SDS011;4904;49.152;11.004;2023-07-02T03:56:14;3.42;;;2.65;;
9729;SDS011;4904;49.152;11.004;2023-07-02T03:58:43;3.20;;;2.90;;
9729;SDS011;4904;49.152;11.004;2023-07-02T04:01:13;3.63;;;2.80;;
9729;SDS011;4904;49.152;11.004;2023-07-02T04:03:42;4.30;;;2.70;;
9729;SDS011;4904;49.152;11.004;2023-07-02T04:06:18;5.18;;;3.05;;
9729;SDS011;4904;49.152;11.004;2023-07-02T04:08:45;2.70;;;2.50;;
9729;SDS011;4904;49.152;11.004;2023-07-02T04:11:18;4.32;;;2.67;;
9729;SDS011;4904;49.152;11.004;2023-07-02T04:13:47;2.95;;;2.70;;
9729;SDS011;4904;49.152;11.004;2023-07-02T04:16:14;2.97;;;2.40;;
9729;SDS011;4904;49.152;11.004;2023-07-02T04:18:41;2.85;;;2.33;;
9729;SDS011;4904;49.152;11.004;2023-07-02T04:21:08;4.25;;;2.67;;
9729;SDS011;4904;49.152;11.004;2023-07-02T04:23:35;4.32;;;2.67;;
9729;SDS011;4904;49.152;11.004;2023-07-02T04:26:02;4.80;;;3.05;;
9729;SDS011;4904;49.152;11.004;2023-07-02T04:28:30;2.95;;;2.35;;
9729;SDS011;4904;49.152;11.004;2023-07-02T04:30:58;2.60;;;2.40;;
9729;SDS011;4904;49.152;11.004;2023-07-02T04:33:24;3.13;;;2.92;;
9729;SDS011;4904;49.152;11.004;2023-07-02T04:35:51;4.38;;;3.38;;
9729;SDS011;4904;49.152;11.004;2023-07-02T04:38:18;3.10;;;2.80;;
9729;SDS011;4904;49.152;11.004;2023-07-02T04:40:45;2.78;;;2.47;;
9729;SDS011;4904;49.152;11.004;2023-07-02T04:43:12;3.63;;;2.80;;
9729;SDS011;4904;49.152;11.004;2023-07-02T04:45:40;3.40;;;2.63;;
9729;SDS011;4904;49.152;11.004;2023-07-02T04:48:09;2.90;;;2.70;;
9729;SDS011;4904;49.152;11.004;2023-07-02T04:50:36;5.80;;;2.80;;
9729;SDS011;4904;49.152;11.004;2023-07-02T04:53:03;3.35;;;3.05;;
9729;SDS011;4904;49.152;11.004;2023-07-02T04:55:29;3.95;;;3.20;;
9729;SDS011;4904;49.152;11.004;2023-07-02T04:57:56;2.70;;;2.50;;
9729;SDS011;4904;49.152;11.004;2023-07-02T05:00:23;3.10;;;2.80;;
9729;SDS011;4904;49.152;11.004;2023-07-02T05:02:51;3.58;;;2.95;;
9729;SDS011;4904;49.152;11.004;2023-07-02T05:05:18;2.83;;;2.55;;
9729;SDS011;4904;49.152;11.004;2023-07-02T05:07:45;3.30;;;2.95;;
9729;SDS011;4904;49.152;11.004;2023-07-02T05:10:12;3.92;;;2.78;;
9729;SDS011;4904;49.152;11.004;2023-07-02T05:12:39;3.17;;;2.70;;
9729;SDS011;4904;49.152;11.004;2023-07-02T05:15:07;4.68;;;2.80;;
9729;SDS011;4904;49.152;11.004;2023-07-02T05:17:34;3.53;;;3.22;;
9729;SDS011;4904;49.152;11.004;2023-07-02T05:20:03;4.50;;;3.47;;
9729;SDS011;4904;49.152;11.004;2023-07-02T05:22:30;3.50;;;3.20;;
9729;SDS011;4904;49.152;11.004;2023-07-02T05:24:57;4.78;;;3.67;;
9729;SDS011;4904;49.152;11.004;2023-07-02T05:27:24;5.60;;;4.22;;
9729;SDS011;4904;49.152;11.004;2023-07-02T05:29:51;4.25;;;3.60;;
9729;SDS011;4904;49.152;11.004;2023-07-02T05:32:20;7.43;;;5.05;;
9729;SDS011;4904;49.152;11.004;2023-07-02T05:34:47;10.18;;;5.63;;
9729;SDS011;4904;49.152;11.004;2023-07-02T05:37:15;6.00;;;5.20;;
9729;SDS011;4904;49.152;11.004;2023-07-02T05:39:42;7.07;;;5.45;;
9729;SDS011;4904;49.152;11.004;2023-07-02T05:42:09;8.10;;;5.55;;
9729;SDS011;4904;49.152;11.004;2023-07-02T05:44:36;8.90;;;6.18;;
9729;SDS011;4904;49.152;11.004;2023-07-02T05:47:03;9.90;;;5.85;;
9729;SDS011;4904;49.152;11.004;2023-07-02T05:49:30;8.50;;;5.88;;
9729;SDS011;4904;49.152;11.004;2023-07-02T05:51:57;11.07;;;6.45;;
9729;SDS011;4904;49.152;11.004;2023-07-02T05:54:25;8.10;;;6.32;;
9729;SDS011;4904;49.152;11.004;2023-07-02T05:56:52;9.50;;;6.40;;
9729;SDS011;4904;49.152;11.004;2023-07-02T05:59:19;9.02;;;6.55;;
9729;SDS011;4904;49.152;11.004;2023-07-02T06:01:45;11.40;;;7.50;;
9729;SDS011;4904;49.152;11.004;2023-07-02T06:04:12;11.18;;;7.13;;
9729;SDS011;4904;49.152;11.004;2023-07-02T06:06:39;10.63;;;7.20;;
9729;SDS011;4904;49.152;11.004;2023-07-02T06:09:06;12.00;;;6.90;;
9729;SDS011;4904;49.152;11.004;2023-07-02T06:11:34;11.02;;;6.60;;
9729;SDS011;4904;49.152;11.004;2023-07-02T06:14:03;10.65;;;6.63;;
9729;SDS011;4904;49.152;11.004;2023-07-02T06:16:29;13.02;;;7.53;;
9729;SDS011;4904;49.152;11.004;2023-07-02T06:18:57;12.68;;;6.88;;
9729;SDS011;4904;49.152;11.004;2023-07-02T06:21:23;13.15;;;7.65;;
9729;SDS011;4904;49.152;11.004;2023-07-02T06:23:55;12.43;;;7.97;;
9729;SDS011;4904;49.152;11.004;2023-07-02T06:26:23;9.55;;;6.88;;
9729;SDS011;4904;49.152;11.004;2023-07-02T06:28:51;11.45;;;7.43;;
9729;SDS011;4904;49.152;11.004;2023-07-02T06:31:18;10.32;;;7.88;;
9729;SDS011;4904;49.152;11.004;2023-07-02T06:33:45;13.68;;;8.43;;
9729;SDS011;4904;49.152;11.004;2023-07-02T06:36:12;10.07;;;7.30;;
9729;SDS011;4904;49.152;11.004;2023-07-02T06:38:40;11.55;;;7.88;;
9729;SDS011;4904;49.152;11.004;2023-07-02T06:41:06;13.65;;;7.20;;
9729;SDS011;4904;49.152;11.004;2023-07-02T06:43:33;9.73;;;7.20;;
9729;SDS011;4904;49.152;11.004;2023-07-02T06:46:01;14.65;;;7.18;;
9729;SDS011;4904;49.152;11.004;2023-07-02T06:48:28;10.07;;;7.13;;
9729;SDS011;4904;49.152;11.004;2023-07-02T06:50:56;11.20;;;7.78;;
9729;SDS011;4904;49.152;11.004;2023-07-02T06:53:23;12.95;;;6.57;;
9729;SDS011;4904;49.152;11.004;2023-07-02T06:55:50;14.07;;;7.38;;
9729;SDS011;4904;49.152;11.004;2023-07-02T06:58:16;9.50;;;7.18;;
9729;SDS011;4904;49.152;11.004;2023-07-02T07:00:43;9.32;;;7.10;;
9729;SDS011;4904;49.152;11.004;2023-07-02T07:03:12;9.75;;;6.68;;
9729;SDS011;4904;49.152;11.004;2023-07-02T07:05:39;12.45;;;7.15;;
9729;SDS011;4904;49.152;11.004;2023-07-02T07:08:06;12.38;;;7.00;;
9729;SDS011;4904;49.152;11.004;2023-07-02T07:10:33;9.88;;;6.93;;
9729;SDS011;4904;49.152;11.004;2023-07-02T07:13:00;10.07;;;6.75;;
9729;SDS011;4904;49.152;11.004;2023-07-02T07:15:29;14.80;;;7.07;;
9729;SDS011;4904;49.152;11.004;2023-07-02T07:17:59;11.38;;;6.75;;
9729;SDS011;4904;49.152;11.004;2023-07-02T07:20:28;10.48;;;7.25;;
9729;SDS011;4904;49.152;11.004;2023-07-02T07:22:55;11.48;;;7.45;;
9729;SDS011;4904;49.152;11.004;2023-07-02T07:25:22;9.55;;;6.70;;
9729;SDS011;4904;49.152;11.004;2023-07-02T07:27:49;13.05;;;7.20;;
9729;SDS011;4904;49.152;11.004;2023-07-02T07:30:16;11.85;;;6.80;;
9729;SDS011;4904;49.152;11.004;2023-07-02T07:32:47;13.38;;;7.13;;
9729;SDS011;4904;49.152;11.004;2023-07-02T07:35:15;12.45;;;6.95;;
9729;SDS011;4904;49.152;11.004;2023-07-02T07:37:43;9.52;;;6.82;;
9729;SDS011;4904;49.152;11.004;2023-07-02T07:40:11;13.88;;;7.70;;
9729;SDS011;4904;49.152;11.004;2023-07-02T07:42:39;12.15;;;7.25;;
9729;SDS011;4904;49.152;11.004;2023-07-02T07:45:09;9.82;;;6.72;;
9729;SDS011;4904;49.152;11.004;2023-07-02T07:47:37;11.40;;;6.57;;
9729;SDS011;4904;49.152;11.004;2023-07-02T07:50:04;11.95;;;7.85;;
9729;SDS011;4904;49.152;11.004;2023-07-02T07:52:36;12.00;;;7.35;;
9729;SDS011;4904;49.152;11.004;2023-07-02T07:55:07;9.50;;;7.10;;
9729;SDS011;4904;49.152;11.004;2023-07-02T07:57:35;11.13;;;7.25;;
9729;SDS011;4904;49.152;11.004;2023-07-02T08:00:03;11.68;;;8.02;;
9729;SDS011;4904;49.152;11.004;2023-07-02T08:02:34;11.95;;;7.47;;
9729;SDS011;4904;49.152;11.004;2023-07-02T08:05:01;10.60;;;7.68;;
9729;SDS011;4904;49.152;11.004;2023-07-02T08:07:28;11.40;;;7.53;;
9729;SDS011;4904;49.152;11.004;2023-07-02T08:09:57;12.95;;;8.07;;
9729;SDS011;4904;49.152;11.004;2023-07-02T08:12:26;13.63;;;8.73;;
9729;SDS011;4904;49.152;11.004;2023-07-02T08:14:54;13.27;;;8.48;;
9729;SDS011;4904;49.152;11.004;2023-07-02T08:17:21;13.48;;;8.25;;
9729;SDS011;4904;49.152;11.004;2023-07-02T08:19:48;13.73;;;8.50;;
9729;SDS011;4904;49.152;11.004;2023-07-02T08:22:14;14.48;;;7.95;;
9729;SDS011;4904;49.152;11.004;2023-07-02T08:24:41;14.93;;;8.90;;
9729;SDS011;4904;49.152;11.004;2023-07-02T08:27:08;14.20;;;8.93;;
9729;SDS011;4904;49.152;11.004;2023-07-02T08:29:40;15.18;;;9.20;;
9729;SDS011;4904;49.152;11.004;2023-07-02T08:32:07;12.70;;;8.63;;
9729;SDS011;4904;49.152;11.004;2023-07-02T08:34:34;10.63;;;8.43;;
9729;SDS011;4904;49.152;11.004;2023-07-02T08:37:01;13.02;;;8.88;;
9729;SDS011;4904;49.152;11.004;2023-07-02T08:39:28;11.27;;;9.10;;
9729;SDS011;4904;49.152;11.004;2023-07-02T08:41:54;12.98;;;9.02;;
9729;SDS011;4904;49.152;11.004;2023-07-02T08:44:22;11.85;;;8.68;;
9729;SDS011;4904;49.152;11.004;2023-07-02T08:46:50;14.90;;;8.75;;
9729;SDS011;4904;49.152;11.004;2023-07-02T08:49:20;13.93;;;8.55;;
9729;SDS011;4904;49.152;11.004;2023-07-02T08:51:47;11.77;;;9.27;;
9729;SDS011;4904;49.152;11.004;2023-07-02T08:54:14;13.10;;;9.07;;
9729;SDS011;4904;49.152;11.004;2023-07-02T08:56:44;14.18;;;9.20;;
9729;SDS011;4904;49.152;11.004;2023-07-02T08:59:12;10.85;;;8.32;;
9729;SDS011;4904;49.152;11.004;2023-07-02T09:01:45;10.40;;;8.45;;
9729;SDS011;4904;49.152;11.004;2023-07-02T09:04:18;11.95;;;8.50;;
9729;SDS011;4904;49.152;11.004;2023-07-02T09:06:46;15.25;;;8.57;;
9729;SDS011;4904;49.152;11.004;2023-07-02T09:09:13;12.85;;;9.00;;
9729;SDS011;4904;49.152;11.004;2023-07-02T09:11:49;12.68;;;9.15;;
9729;SDS011;4904;49.152;11.004;2023-07-02T09:14:25;12.55;;;9.25;;
9729;SDS011;4904;49.152;11.004;2023-07-02T09:17:03;14.48;;;8.93;;
9729;SDS011;4904;49.152;11.004;2023-07-02T09:19:32;15.70;;;9.07;;
9729;SDS011;4904;49.152;11.004;2023-07-02T09:22:00;13.93;;;9.30;;
9729;SDS011;4904;49.152;11.004;2023-07-02T09:24:27;13.20;;;9.05;;
9729;SDS011;4904;49.152;11.004;2023-07-02T09:26:56;14.40;;;8.63;;
9729;SDS011;4904;49.152;11.004;2023-07-02T09:29:25;14.75;;;9.50;;
9729;SDS011;4904;49.152;11.004;2023-07-02T09:31:53;12.40;;;9.85;;
9729;SDS011;4904;49.152;11.004;2023-07-02T09:34:26;12.10;;;8.75;;
9729;SDS011;4904;49.152;11.004;2023-07-02T09:36:55;15.52;;;9.68;;
9729;SDS011;4904;49.152;11.004;2023-07-02T09:39:25;14.98;;;9.75;;
9729;SDS011;4904;49.152;11.004;2023-07-02T09:41:53;13.55;;;9.30;;
9729;SDS011;4904;49.152;11.004;2023-07-02T09:44:21;12.05;;;8.55;;
9729;SDS011;4904;49.152;11.004;2023-07-02T09:46:53;13.60;;;9.13;;
9729;SDS011;4904;49.152;11.004;2023-07-02T09:49:24;13.02;;;9.13;;
9729;SDS011;4904;49.152;11.004;2023-07-02T09:51:52;14.50;;;9.48;;
9729;SDS011;4904;49.152;11.004;2023-07-02T09:54:20;15.98;;;9.77;;
9729;SDS011;4904;49.152;11.004;2023-07-02T09:56:47;12.80;;;9.30;;
9729;SDS011;4904;49.152;11.004;2023-07-02T09:59:14;12.85;;;9.32;;
9729;SDS011;4904;49.152;11.004;2023-07-02T10:01:41;13.43;;;9.48;;
9729;SDS011;4904;49.152;11.004;2023-07-02T10:04:14;17.88;;;10.15;;
9729;SDS011;4904;49.152;11.004;2023-07-02T10:06:47;14.45;;;9.35;;
9729;SDS011;4904;49.152;11.004;2023-07-02T10:09:15;13.25;;;9.43;;
9729;SDS011;4904;49.152;11.004;2023-07-02T10:11:44;12.73;;;9.07;;
9729;SDS011;4904;49.152;11.004;2023-07-02T10:14:11;16.55;;;9.90;;
9729;SDS011;4904;49.152;11.004;2023-07-02T10:16:51;14.00;;;10.18;;
9729;SDS011;4904;49.152;11.004;2023-07-02T10:19:18;14.13;;;9.73;;
9729;SDS011;4904;49.152;11.004;2023-07-02T10:21:45;13.00;;;10.18;;
9729;SDS011;4904;49.152;11.004;2023-07-02T10:24:16;15.73;;;9.68;;
9729;SDS011;4904;49.152;11.004;2023-07-02T10:26:55;12.90;;;9.80;;
9729;SDS011;4904;49.152;11.004;2023-07-02T10:29:24;11.77;;;9.30;;
9729;SDS011;4904;49.152;11.004;2023-07-02T10:31:52;14.50;;;9.25;;
9729;SDS011;4904;49.152;11.004;2023-07-02T10:34:30;12.68;;;9.60;;
9729;SDS011;4904;49.152;11.004;2023-07-02T10:36:57;13.38;;;9.68;;
9729;SDS011;4904;49.152;11.004;2023-07-02T10:39:25;14.50;;;9.85;;
9729;SDS011;4904;49.152;11.004;2023-07-02T10:41:52;14.77;;;10.05;;
9729;SDS011;4904;49.152;11.004;2023-07-02T10:44:20;14.60;;;10.45;;
9729;SDS011;4904;49.152;11.004;2023-07-02T10:46:48;13.88;;;10.43;;
9729;SDS011;4904;49.152;11.004;2023-07-02T10:49:17;13.05;;;9.73;;
9729;SDS011;4904;49.152;11.004;2023-07-02T10:51:45;14.02;;;9.88;;
9729;SDS011;4904;49.152;11.004;2023-07-02T10:54:23;13.65;;;10.38;;
9729;SDS011;4904;49.152;11.004;2023-07-02T10:56:50;12.27;;;9.65;;
9729;SDS011;4904;49.152;11.004;2023-07-02T10:59:26;14.07;;;10.70;;
9729;SDS011;4904;49.152;11.004;2023-07-02T11:01:53;13.38;;;9.77;;
9729;SDS011;4904;49.152;11.004;2023-07-02T11:04:20;13.80;;;9.70;;
9729;SDS011;4904;49.152;11.004;2023-07-02T11:06:48;14.02;;;9.77;;
9729;SDS011;4904;49.152;11.004;2023-07-02T11:09:15;15.25;;;10.18;;
9729;SDS011;4904;49.152;11.004;2023-07-02T11:11:49;14.18;;;9.82;;
9729;SDS011;4904;49.152;11.004;2023-07-02T11:14:27;12.57;;;9.45;;
9729;SDS011;4904;49.152;11.004;2023-07-02T11:16:57;13.65;;;10.07;;
9729;SDS011;4904;49.152;11.004;2023-07-02T11:19:24;12.75;;;9.40;;
9729;SDS011;4904;49.152;11.004;2023-07-02T11:21:51;16.20;;;9.88;;
9729;SDS011;4904;49.152;11.004;2023-07-02T11:24:26;14.57;;;9.75;;
9729;SDS011;4904;49.152;11.004;2023-07-02T11:26:54;14.48;;;9.80;;
9729;SDS011;4904;49.152;11.004;2023-07-02T11:29:21;13.55;;;9.40;;
9729;SDS011;4904;49.152;11.004;2023-07-02T11:31:50;13.32;;;9.43;;
9729;SDS011;4904;49.152;11.004;2023-07-02T11:34:17;11.82;;;8.88;;
9729;SDS011;4904;49.152;11.004;2023-07-02T11:36:46;13.98;;;9.48;;
9729;SDS011;4904;49.152;11.004;2023-07-02T11:39:14;11.32;;;8.90;;
9729;SDS011;4904;49.152;11.004;2023-07-02T11:41:42;13.07;;;8.70;;
9729;SDS011;4904;49.152;11.004;2023-07-02T11:44:10;12.68;;;8.85;;
9729;SDS011;4904;49.152;11.004;2023-07-02T11:46:38;10.70;;;8.93;;
9729;SDS011;4904;49.152;11.004;2023-07-02T11:49:06;11.77;;;9.00;;
9729;SDS011;4904;49.152;11.004;2023-07-02T11:51:34;12.00;;;9.05;;
9729;SDS011;4904;49.152;11.004;2023-07-02T11:54:02;14.25;;;9.68;;
9729;SDS011;4904;49.152;11.004;2023-07-02T11:56:28;12.95;;;9.65;;
9729;SDS011;4904;49.152;11.004;2023-07-02T11:58:55;13.70;;;9.85;;
9729;SDS011;4904;49.152;11.004;2023-07-02T12:01:22;14.05;;;9.48;;
9729;SDS011;4904;49.152;11.004;2023-07-02T12:03:49;13.77;;;10.18;;
9729;SDS011;4904;49.152;11.004;2023-07-02T12:06:17;13.05;;;9.63;;
9729;SDS011;4904;49.152;11.004;2023-07-02T12:08:44;15.25;;;9.60;;
9729;SDS011;4904;49.152;11.004;2023-07-02T12:11:11;13.40;;;9.18;;
9729;SDS011;4904;49.152;11.004;2023-07-02T12:13:38;14.95;;;10.25;;
9729;SDS011;4904;49.152;11.004;2023-07-02T12:16:05;12.93;;;9.85;;
9729;SDS011;4904;49.152;11.004;2023-07-02T12:18:32;13.77;;;10.30;;
9729;SDS011;4904;49.152;11.004;2023-07-02T12:20:59;12.52;;;9.63;;
9729;SDS011;4904;49.152;11.004;2023-07-02T12:23:27;15.57;;;10.35;;
9729;SDS011;4904;49.152;11.004;2023-07-02T12:25:54;12.40;;;9.98;;
9729;SDS011;4904;49.152;11.004;2023-07-02T12:28:20;15.10;;;10.55;;
9729;SDS011;4904;49.152;11.004;2023-07-02T12:30:48;12.50;;;9.43;;
9729;SDS011;4904;49.152;11.004;2023-07-02T12:33:15;14.18;;;10.23;;
9729;SDS011;4904;49.152;11.004;2023-07-02T12:35:42;14.75;;;10.30;;
9729;SDS011;4904;49.152;11.004;2023-07-02T12:38:09;14.05;;;10.65;;
9729;SDS011;4904;49.152;11.004;2023-07-02T12:40:37;15.25;;;10.73;;
9729;SDS011;4904;49.152;11.004;2023-07-02T12:43:04;20.17;;;11.50;;
9729;SDS011;4904;49.152;11.004;2023-07-02T12:45:31;15.23;;;10.68;;
9729;SDS011;4904;49.152;11.004;2023-07-02T12:47:58;15.43;;;10.85;;
9729;SDS011;4904;49.152;11.004;2023-07-02T12:50:25;14.88;;;11.27;;
9729;SDS011;4904;49.152;11.004;2023-07-02T12:52:52;14.77;;;10.93;;
9729;SDS011;4904;49.152;11.004;2023-07-02T12:55:18;16.50;;;12.10;;
9729;SDS011;4904;49.152;11.004;2023-07-02T12:57:47;16.50;;;10.52;;
9729;SDS011;4904;49.152;11.004;2023-07-02T13:00:14;15.38;;;11.52;;
9729;SDS011;4904;49.152;11.004;2023-07-02T13:02:41;14.80;;;11.13;;
9729;SDS011;4904;49.152;11.004;2023-07-02T13:05:08;16.13;;;11.35;;
9729;SDS011;4904;49.152;11.004;2023-07-02T13:07:35;15.90;;;11.70;;
9729;SDS011;4904;49.152;11.004;2023-07-02T13:10:02;15.63;;;10.75;;
9729;SDS011;4904;49.152;11.004;2023-07-02T13:12:29;14.63;;;11.70;;
9729;SDS011;4904;49.152;11.004;2023-07-02T13:14:57;13.85;;;10.93;;
9729;SDS011;4904;49.152;11.004;2023-07-02T13:17:24;17.42;;;11.60;;
9729;SDS011;4904;49.152;11.004;2023-07-02T13:19:51;15.77;;;11.30;;
9729;SDS011;4904;49.152;11.004;2023-07-02T13:22:18;14.73;;;11.15;;
9729;SDS011;4904;49.152;11.004;2023-07-02T13:24:45;13.57;;;10.70;;
9729;SDS011;4904;49.152;11.004;2023-07-02T13:27:12;13.88;;;11.10;;
9729;SDS011;4904;49.152;11.004;2023-07-02T13:29:41;15.50;;;10.15;;
9729;SDS011;4904;49.152;11.004;2023-07-02T13:32:09;18.50;;;11.68;;
9729;SDS011;4904;49.152;11.004;2023-07-02T13:34:36;14.27;;;11.13;;
9729;SDS011;4904;49.152;11.004;2023-07-02T13:37:04;14.70;;;11.18;;
9729;SDS011;4904;49.152;11.004;2023-07-02T13:39:31;14.02;;;10.98;;
9729;SDS011;4904;49.152;11.004;2023-07-02T13:41:58;15.70;;;11.63;;
9729;SDS011;4904;49.152;11.004;2023-07-02T13:44:25;17.02;;;11.35;;
9729;SDS011;4904;49.152;11.004;2023-07-02T13:46:51;15.20;;;11.07;;
9729;SDS011;4904;49.152;11.004;2023-07-02T13:49:20;13.10;;;10.95;;
9729;SDS011;4904;49.152;11.004;2023-07-02T13:51:47;13.95;;;10.75;;
9729;SDS011;4904;49.152;11.004;2023-07-02T13:54:15;14.45;;;11.00;;
9729;SDS011;4904;49.152;11.004;2023-07-02T13:56:43;14.60;;;10.80;;
9729;SDS011;4904;49.152;11.004;2023-07-02T13:59:12;16.60;;;11.27;;
9729;SDS011;4904;49.152;11.004;2023-07-02T14:01:40;12.52;;;10.13;;
9729;SDS011;4904;49.152;11.004;2023-07-02T14:04:06;13.23;;;9.93;;
9729;SDS011;4904;49.152;11.004;2023-07-02T14:06:33;14.27;;;9.80;;
9729;SDS011;4904;49.152;11.004;2023-07-02T14:09:00;13.98;;;10.52;;
9729;SDS011;4904;49.152;11.004;2023-07-02T14:11:27;14.40;;;11.10;;
9729;SDS011;4904;49.152;11.004;2023-07-02T14:13:54;14.35;;;10.73;;
9729;SDS011;4904;49.152;11.004;2023-07-02T14:16:23;14.43;;;10.65;;
9729;SDS011;4904;49.152;11.004;2023-07-02T14:18:50;12.43;;;10.45;;
9729;SDS011;4904;49.152;11.004;2023-07-02T14:21:17;13.68;;;10.70;;
9729;SDS011;4904;49.152;11.004;2023-07-02T14:23:44;14.23;;;10.57;;
9729;SDS011;4904;49.152;11.004;2023-07-02T14:26:11;15.43;;;10.48;;
9729;SDS011;4904;49.152;11.004;2023-07-02T14:28:38;15.25;;;11.85;;
9729;SDS011;4904;49.152;11.004;2023-07-02T14:31:05;15.35;;;10.40;;
9729;SDS011;4904;49.152;11.004;2023-07-02T14:33:34;13.95;;;10.63;;
9729;SDS011;4904;49.152;11.004;2023-07-02T14:36:02;15.60;;;11.30;;
9729;SDS011;4904;49.152;11.004;2023-07-02T14:38:30;13.15;;;10.15;;
9729;SDS011;4904;49.152;11.004;2023-07-02T14:40:58;13.13;;;10.68;;
9729;SDS011;4904;49.152;11.004;2023-07-02T14:43:26;15.45;;;10.73;;
9729;SDS011;4904;49.152;11.004;2023-07-02T14:45:55;15.73;;;10.65;;
9729;SDS011;4904;49.152;11.004;2023-07-02T14:48:24;16.52;;;11.25;;
9729;SDS011;4904;49.152;11.004;2023-07-02T14:50:53;14.20;;;10.63;;
9729;SDS011;4904;49.152;11.004;2023-07-02T14:53:22;15.48;;;10.93;;
9729;SDS011;4904;49.152;11.004;2023-07-02T14:55:49;16.10;;;11.63;;